Archival Weather

Chicago O'Hare International

Chicago, Illinois (KORD)

Report from: Friday, December 2, 2022 8:51 PM CST
Current time: Friday, June 21, 2024 2:43 AM CDT

Current weather – Weather history – Daily summaries
Weather forecast

Temperature11.1°C (52.0°F)
Dew point6.1°C (43.0°F)
Winds 17 kts (8.7 m/s, 19.6 mph) South-Southwest (210°)
Wind gusts 31 kts (15.9 m/s, 35.7 mph)
Peak wind 32 kts (16.5 m/s, 36.8 mph) South-Southwest (200°) at 01:54
Visibility10 mi. (16.1 km)
Clouds Ceiling: Broken clouds 2,200 ft. (671 m)
Broken clouds 3,000 ft. (914 m)
Overcast 4,200 ft. (1,280 m)
Altimeter29.69 in.Hg (1005 mB)
Relative humidity71 %
Density altitude-75 ft. (-23 m)
Sea-level pressure100.6 kPa (1006 mB, 29.70 in.Hg)
Remarks Automated weather observing station with precipitation discriminator
Pressure rising more quickly
Flight conditions Marginal Visual Meteorological Conditions
Raw dataKORD 030251Z 21017G31KT 10SM BKN022 BKN030 OVC042 11/06 A2969 RMK AO2 PK WND 20032/0154 SLP058 T01110061 53002
An error has occurred. This application may no longer respond until reloaded. Reload 🗙